sensor_id;sensor_type;location;lat;lon;timestamp;P1;durP1;ratioP1;P2;durP2;ratioP2
49310;SDS011;35177;45.900;5.946;2023-02-22T00:00:19;32.35;;;18.10;;
49310;SDS011;35177;45.900;5.946;2023-02-22T00:03:04;34.13;;;20.35;;
49310;SDS011;35177;45.900;5.946;2023-02-22T00:05:31;33.10;;;18.17;;
49310;SDS011;35177;45.900;5.946;2023-02-22T00:07:57;28.63;;;17.77;;
49310;SDS011;35177;45.900;5.946;2023-02-22T00:10:25;33.35;;;17.08;;
49310;SDS011;35177;45.900;5.946;2023-02-22T00:12:51;24.75;;;15.07;;
49310;SDS011;35177;45.900;5.946;2023-02-22T00:15:19;27.10;;;15.48;;
49310;SDS011;35177;45.900;5.946;2023-02-22T00:17:47;26.73;;;16.27;;
49310;SDS011;35177;45.900;5.946;2023-02-22T00:20:13;26.77;;;15.73;;
49310;SDS011;35177;45.900;5.946;2023-02-22T00:22:44;24.00;;;14.93;;
49310;SDS011;35177;45.900;5.946;2023-02-22T00:25:12;22.23;;;13.95;;
49310;SDS011;35177;45.900;5.946;2023-02-22T00:27:41;24.75;;;13.95;;
49310;SDS011;35177;45.900;5.946;2023-02-22T00:30:07;25.48;;;15.02;;
49310;SDS011;35177;45.900;5.946;2023-02-22T00:32:37;24.15;;;13.95;;
49310;SDS011;35177;45.900;5.946;2023-02-22T00:35:03;25.98;;;14.55;;
49310;SDS011;35177;45.900;5.946;2023-02-22T00:37:32;27.65;;;15.73;;
49310;SDS011;35177;45.900;5.946;2023-02-22T00:39:59;29.52;;;15.50;;
49310;SDS011;35177;45.900;5.946;2023-02-22T00:42:25;29.45;;;15.73;;
49310;SDS011;35177;45.900;5.946;2023-02-22T00:44:50;24.80;;;14.52;;
49310;SDS011;35177;45.900;5.946;2023-02-22T00:47:16;20.33;;;12.77;;
49310;SDS011;35177;45.900;5.946;2023-02-22T00:49:41;20.63;;;12.93;;
49310;SDS011;35177;45.900;5.946;2023-02-22T00:52:07;23.65;;;12.27;;
49310;SDS011;35177;45.900;5.946;2023-02-22T00:54:33;17.85;;;10.95;;
49310;SDS011;35177;45.900;5.946;2023-02-22T00:56:59;17.35;;;11.00;;
49310;SDS011;35177;45.900;5.946;2023-02-22T00:59:24;19.13;;;12.18;;
49310;SDS011;35177;45.900;5.946;2023-02-22T01:01:51;21.63;;;14.30;;
49310;SDS011;35177;45.900;5.946;2023-02-22T01:04:17;23.27;;;13.63;;
49310;SDS011;35177;45.900;5.946;2023-02-22T01:06:42;25.17;;;13.60;;
49310;SDS011;35177;45.900;5.946;2023-02-22T01:09:08;21.92;;;12.32;;
49310;SDS011;35177;45.900;5.946;2023-02-22T01:11:33;21.52;;;13.35;;
49310;SDS011;35177;45.900;5.946;2023-02-22T01:13:59;18.40;;;11.90;;
49310;SDS011;35177;45.900;5.946;2023-02-22T01:16:24;19.95;;;11.63;;
49310;SDS011;35177;45.900;5.946;2023-02-22T01:18:50;23.58;;;12.45;;
49310;SDS011;35177;45.900;5.946;2023-02-22T01:21:16;20.40;;;12.32;;
49310;SDS011;35177;45.900;5.946;2023-02-22T01:23:45;23.58;;;12.90;;
49310;SDS011;35177;45.900;5.946;2023-02-22T01:26:11;22.25;;;13.10;;
49310;SDS011;35177;45.900;5.946;2023-02-22T01:28:37;21.27;;;12.65;;
49310;SDS011;35177;45.900;5.946;2023-02-22T01:31:03;18.38;;;11.35;;
49310;SDS011;35177;45.900;5.946;2023-02-22T01:33:29;20.23;;;12.13;;
49310;SDS011;35177;45.900;5.946;2023-02-22T01:35:55;31.00;;;14.88;;
49310;SDS011;35177;45.900;5.946;2023-02-22T01:38:21;21.13;;;13.18;;
49310;SDS011;35177;45.900;5.946;2023-02-22T01:40:48;27.42;;;14.88;;
49310;SDS011;35177;45.900;5.946;2023-02-22T01:45:55;26.42;;;15.32;;
49310;SDS011;35177;45.900;5.946;2023-02-22T01:51:17;30.23;;;17.05;;
49310;SDS011;35177;45.900;5.946;2023-02-22T01:54:00;30.52;;;17.13;;
49310;SDS011;35177;45.900;5.946;2023-02-22T01:57:06;30.55;;;17.30;;
49310;SDS011;35177;45.900;5.946;2023-02-22T02:02:12;29.73;;;17.05;;
49310;SDS011;35177;45.900;5.946;2023-02-22T02:04:38;25.67;;;15.73;;
49310;SDS011;35177;45.900;5.946;2023-02-22T02:07:07;31.85;;;16.75;;
49310;SDS011;35177;45.900;5.946;2023-02-22T02:09:42;27.08;;;16.58;;
49310;SDS011;35177;45.900;5.946;2023-02-22T02:12:13;28.88;;;16.90;;
49310;SDS011;35177;45.900;5.946;2023-02-22T02:14:41;25.58;;;16.23;;
49310;SDS011;35177;45.900;5.946;2023-02-22T02:17:08;30.63;;;14.48;;
49310;SDS011;35177;45.900;5.946;2023-02-22T02:22:18;24.30;;;14.25;;
49310;SDS011;35177;45.900;5.946;2023-02-22T02:27:50;20.90;;;13.65;;
49310;SDS011;35177;45.900;5.946;2023-02-22T02:33:42;21.85;;;12.30;;
49310;SDS011;35177;45.900;5.946;2023-02-22T02:36:19;22.13;;;12.07;;
49310;SDS011;35177;45.900;5.946;2023-02-22T02:41:48;21.77;;;12.90;;
49310;SDS011;35177;45.900;5.946;2023-02-22T02:47:00;28.00;;;16.40;;
49310;SDS011;35177;45.900;5.946;2023-02-22T02:49:53;26.02;;;15.05;;
49310;SDS011;35177;45.900;5.946;2023-02-22T02:52:24;26.83;;;14.75;;
49310;SDS011;35177;45.900;5.946;2023-02-22T02:54:53;25.15;;;13.88;;
49310;SDS011;35177;45.900;5.946;2023-02-22T02:57:20;20.63;;;13.98;;
49310;SDS011;35177;45.900;5.946;2023-02-22T02:59:45;21.92;;;13.63;;
49310;SDS011;35177;45.900;5.946;2023-02-22T03:02:21;24.00;;;13.38;;
49310;SDS011;35177;45.900;5.946;2023-02-22T03:05:02;24.60;;;13.25;;
49310;SDS011;35177;45.900;5.946;2023-02-22T03:13:49;38.50;;;16.60;;
49310;SDS011;35177;45.900;5.946;2023-02-22T03:21:41;25.25;;;13.93;;
49310;SDS011;35177;45.900;5.946;2023-02-22T03:24:24;26.42;;;14.75;;
49310;SDS011;35177;45.900;5.946;2023-02-22T03:27:05;24.83;;;13.40;;
49310;SDS011;35177;45.900;5.946;2023-02-22T03:29:37;24.40;;;13.90;;
49310;SDS011;35177;45.900;5.946;2023-02-22T03:32:09;20.80;;;13.20;;
49310;SDS011;35177;45.900;5.946;2023-02-22T03:34:44;27.52;;;15.70;;
49310;SDS011;35177;45.900;5.946;2023-02-22T03:37:17;24.48;;;13.45;;
49310;SDS011;35177;45.900;5.946;2023-02-22T03:39:50;23.23;;;13.63;;
49310;SDS011;35177;45.900;5.946;2023-02-22T03:42:23;21.70;;;13.50;;
49310;SDS011;35177;45.900;5.946;2023-02-22T03:44:54;25.40;;;14.93;;
49310;SDS011;35177;45.900;5.946;2023-02-22T03:47:44;21.65;;;14.02;;
49310;SDS011;35177;45.900;5.946;2023-02-22T03:50:20;24.80;;;14.70;;
49310;SDS011;35177;45.900;5.946;2023-02-22T03:52:50;26.08;;;14.93;;
49310;SDS011;35177;45.900;5.946;2023-02-22T03:55:17;26.15;;;15.70;;
49310;SDS011;35177;45.900;5.946;2023-02-22T03:57:50;24.15;;;14.73;;
49310;SDS011;35177;45.900;5.946;2023-02-22T04:00:21;27.52;;;17.15;;
49310;SDS011;35177;45.900;5.946;2023-02-22T04:02:49;24.92;;;14.80;;
49310;SDS011;35177;45.900;5.946;2023-02-22T04:05:15;27.70;;;16.20;;
49310;SDS011;35177;45.900;5.946;2023-02-22T04:07:41;28.00;;;15.45;;
49310;SDS011;35177;45.900;5.946;2023-02-22T04:10:07;26.45;;;14.30;;
49310;SDS011;35177;45.900;5.946;2023-02-22T04:12:34;22.48;;;13.27;;
49310;SDS011;35177;45.900;5.946;2023-02-22T04:15:00;20.73;;;13.02;;
49310;SDS011;35177;45.900;5.946;2023-02-22T04:17:27;23.67;;;13.73;;
49310;SDS011;35177;45.900;5.946;2023-02-22T04:19:52;25.35;;;14.65;;
49310;SDS011;35177;45.900;5.946;2023-02-22T04:22:18;23.02;;;14.43;;
49310;SDS011;35177;45.900;5.946;2023-02-22T04:24:43;26.20;;;16.23;;
49310;SDS011;35177;45.900;5.946;2023-02-22T04:27:09;24.05;;;13.90;;
49310;SDS011;35177;45.900;5.946;2023-02-22T04:29:35;22.13;;;13.27;;
49310;SDS011;35177;45.900;5.946;2023-02-22T04:32:00;25.58;;;14.77;;
49310;SDS011;35177;45.900;5.946;2023-02-22T04:34:26;26.45;;;14.77;;
49310;SDS011;35177;45.900;5.946;2023-02-22T04:36:51;25.67;;;14.98;;
49310;SDS011;35177;45.900;5.946;2023-02-22T04:39:17;27.77;;;15.93;;
49310;SDS011;35177;45.900;5.946;2023-02-22T04:41:43;25.00;;;15.52;;
49310;SDS011;35177;45.900;5.946;2023-02-22T04:44:08;27.83;;;15.90;;
49310;SDS011;35177;45.900;5.946;2023-02-22T04:46:33;27.27;;;15.32;;
49310;SDS011;35177;45.900;5.946;2023-02-22T04:48:59;26.13;;;16.05;;
49310;SDS011;35177;45.900;5.946;2023-02-22T04:51:25;25.58;;;14.73;;
49310;SDS011;35177;45.900;5.946;2023-02-22T04:53:50;22.95;;;14.23;;
49310;SDS011;35177;45.900;5.946;2023-02-22T04:56:17;26.48;;;14.68;;
49310;SDS011;35177;45.900;5.946;2023-02-22T04:58:43;21.42;;;12.88;;
49310;SDS011;35177;45.900;5.946;2023-02-22T05:01:08;19.42;;;12.55;;
49310;SDS011;35177;45.900;5.946;2023-02-22T05:03:37;23.90;;;14.05;;
49310;SDS011;35177;45.900;5.946;2023-02-22T05:06:03;29.90;;;17.70;;
49310;SDS011;35177;45.900;5.946;2023-02-22T05:08:28;24.10;;;13.77;;
49310;SDS011;35177;45.900;5.946;2023-02-22T05:10:54;26.30;;;15.77;;
49310;SDS011;35177;45.900;5.946;2023-02-22T05:13:20;27.05;;;15.75;;
49310;SDS011;35177;45.900;5.946;2023-02-22T05:15:45;23.17;;;13.57;;
49310;SDS011;35177;45.900;5.946;2023-02-22T05:18:12;22.20;;;14.10;;
49310;SDS011;35177;45.900;5.946;2023-02-22T05:20:38;32.15;;;16.50;;
49310;SDS011;35177;45.900;5.946;2023-02-22T05:23:03;30.23;;;16.45;;
49310;SDS011;35177;45.900;5.946;2023-02-22T05:25:29;27.33;;;14.90;;
49310;SDS011;35177;45.900;5.946;2023-02-22T05:28:03;25.52;;;13.45;;
49310;SDS011;35177;45.900;5.946;2023-02-22T05:30:33;25.17;;;16.42;;
49310;SDS011;35177;45.900;5.946;2023-02-22T05:33:00;24.48;;;14.57;;
49310;SDS011;35177;45.900;5.946;2023-02-22T05:35:26;36.85;;;16.45;;
49310;SDS011;35177;45.900;5.946;2023-02-22T05:37:53;34.33;;;18.33;;
49310;SDS011;35177;45.900;5.946;2023-02-22T05:40:20;46.58;;;25.27;;
49310;SDS011;35177;45.900;5.946;2023-02-22T05:42:48;31.58;;;18.13;;
49310;SDS011;35177;45.900;5.946;2023-02-22T05:45:14;21.15;;;13.32;;
49310;SDS011;35177;45.900;5.946;2023-02-22T05:47:41;26.90;;;16.70;;
49310;SDS011;35177;45.900;5.946;2023-02-22T05:50:07;24.88;;;15.32;;
49310;SDS011;35177;45.900;5.946;2023-02-22T05:52:33;26.48;;;15.80;;
49310;SDS011;35177;45.900;5.946;2023-02-22T05:54:58;24.88;;;13.50;;
49310;SDS011;35177;45.900;5.946;2023-02-22T05:57:24;27.42;;;16.67;;
49310;SDS011;35177;45.900;5.946;2023-02-22T05:59:49;25.38;;;14.75;;
49310;SDS011;35177;45.900;5.946;2023-02-22T06:02:15;27.02;;;15.55;;
49310;SDS011;35177;45.900;5.946;2023-02-22T06:04:44;31.50;;;17.95;;
49310;SDS011;35177;45.900;5.946;2023-02-22T06:07:10;30.38;;;18.20;;
49310;SDS011;35177;45.900;5.946;2023-02-22T06:09:36;29.65;;;16.92;;
49310;SDS011;35177;45.900;5.946;2023-02-22T06:12:01;23.23;;;15.02;;
49310;SDS011;35177;45.900;5.946;2023-02-22T06:14:27;29.75;;;17.63;;
49310;SDS011;35177;45.900;5.946;2023-02-22T06:16:53;31.45;;;18.77;;
49310;SDS011;35177;45.900;5.946;2023-02-22T06:19:20;34.72;;;18.80;;
49310;SDS011;35177;45.900;5.946;2023-02-22T06:21:52;31.13;;;18.92;;
49310;SDS011;35177;45.900;5.946;2023-02-22T06:24:19;27.20;;;15.70;;
49310;SDS011;35177;45.900;5.946;2023-02-22T06:26:45;28.35;;;16.08;;
49310;SDS011;35177;45.900;5.946;2023-02-22T06:29:11;28.73;;;18.02;;
49310;SDS011;35177;45.900;5.946;2023-02-22T06:31:37;25.55;;;16.35;;
49310;SDS011;35177;45.900;5.946;2023-02-22T06:34:03;32.20;;;16.70;;
49310;SDS011;35177;45.900;5.946;2023-02-22T06:36:28;27.98;;;16.67;;
49310;SDS011;35177;45.900;5.946;2023-02-22T06:38:55;29.23;;;16.88;;
49310;SDS011;35177;45.900;5.946;2023-02-22T06:41:21;27.88;;;16.17;;
49310;SDS011;35177;45.900;5.946;2023-02-22T06:43:48;25.75;;;15.40;;
49310;SDS011;35177;45.900;5.946;2023-02-22T06:46:14;30.55;;;17.27;;
49310;SDS011;35177;45.900;5.946;2023-02-22T06:48:39;40.10;;;22.13;;
49310;SDS011;35177;45.900;5.946;2023-02-22T06:51:06;41.22;;;22.83;;
49310;SDS011;35177;45.900;5.946;2023-02-22T06:53:33;35.00;;;19.67;;
49310;SDS011;35177;45.900;5.946;2023-02-22T06:55:59;32.90;;;19.60;;
49310;SDS011;35177;45.900;5.946;2023-02-22T06:58:24;29.65;;;17.65;;
49310;SDS011;35177;45.900;5.946;2023-02-22T07:00:51;32.05;;;17.60;;
49310;SDS011;35177;45.900;5.946;2023-02-22T07:03:16;29.90;;;18.13;;
49310;SDS011;35177;45.900;5.946;2023-02-22T07:05:42;52.42;;;30.90;;
49310;SDS011;35177;45.900;5.946;2023-02-22T07:08:08;57.72;;;32.33;;
49310;SDS011;35177;45.900;5.946;2023-02-22T07:10:35;39.47;;;22.73;;
49310;SDS011;35177;45.900;5.946;2023-02-22T07:13:02;52.25;;;29.23;;
49310;SDS011;35177;45.900;5.946;2023-02-22T07:15:30;46.78;;;26.90;;
49310;SDS011;35177;45.900;5.946;2023-02-22T07:17:56;28.85;;;15.63;;
49310;SDS011;35177;45.900;5.946;2023-02-22T07:20:24;29.55;;;16.45;;
49310;SDS011;35177;45.900;5.946;2023-02-22T07:22:52;23.63;;;15.88;;
49310;SDS011;35177;45.900;5.946;2023-02-22T07:25:18;24.48;;;15.35;;
49310;SDS011;35177;45.900;5.946;2023-02-22T07:27:44;25.25;;;14.38;;
49310;SDS011;35177;45.900;5.946;2023-02-22T07:30:20;26.85;;;14.48;;
49310;SDS011;35177;45.900;5.946;2023-02-22T07:32:48;19.33;;;13.27;;
49310;SDS011;35177;45.900;5.946;2023-02-22T07:37:48;24.73;;;14.85;;
49310;SDS011;35177;45.900;5.946;2023-02-22T07:40:13;23.13;;;14.80;;
49310;SDS011;35177;45.900;5.946;2023-02-22T07:42:59;26.05;;;14.63;;
49310;SDS011;35177;45.900;5.946;2023-02-22T07:45:28;32.80;;;17.10;;
49310;SDS011;35177;45.900;5.946;2023-02-22T07:47:56;23.63;;;14.57;;
49310;SDS011;35177;45.900;5.946;2023-02-22T07:50:22;29.50;;;17.88;;
49310;SDS011;35177;45.900;5.946;2023-02-22T07:52:51;57.15;;;32.53;;
49310;SDS011;35177;45.900;5.946;2023-02-22T07:55:18;44.88;;;23.05;;
49310;SDS011;35177;45.900;5.946;2023-02-22T07:57:46;38.15;;;24.10;;
49310;SDS011;35177;45.900;5.946;2023-02-22T08:00:15;30.35;;;19.10;;
49310;SDS011;35177;45.900;5.946;2023-02-22T08:02:47;37.67;;;20.33;;
49310;SDS011;35177;45.900;5.946;2023-02-22T08:05:13;30.35;;;18.75;;
49310;SDS011;35177;45.900;5.946;2023-02-22T08:07:39;31.10;;;18.63;;
49310;SDS011;35177;45.900;5.946;2023-02-22T08:10:05;32.33;;;18.20;;
49310;SDS011;35177;45.900;5.946;2023-02-22T08:12:32;36.75;;;18.33;;
49310;SDS011;35177;45.900;5.946;2023-02-22T08:14:59;35.13;;;17.30;;
49310;SDS011;35177;45.900;5.946;2023-02-22T08:17:24;25.40;;;17.40;;
49310;SDS011;35177;45.900;5.946;2023-02-22T08:19:50;31.23;;;18.95;;
49310;SDS011;35177;45.900;5.946;2023-02-22T08:22:15;28.85;;;17.30;;
49310;SDS011;35177;45.900;5.946;2023-02-22T08:24:41;30.20;;;16.88;;
49310;SDS011;35177;45.900;5.946;2023-02-22T08:27:06;26.35;;;17.67;;
49310;SDS011;35177;45.900;5.946;2023-02-22T08:29:32;27.83;;;17.90;;
49310;SDS011;35177;45.900;5.946;2023-02-22T08:32:00;29.13;;;17.35;;
49310;SDS011;35177;45.900;5.946;2023-02-22T08:34:26;27.00;;;17.58;;
49310;SDS011;35177;45.900;5.946;2023-02-22T08:36:52;31.13;;;18.58;;
49310;SDS011;35177;45.900;5.946;2023-02-22T08:39:18;29.58;;;17.83;;
49310;SDS011;35177;45.900;5.946;2023-02-22T08:41:43;27.25;;;17.33;;
49310;SDS011;35177;45.900;5.946;2023-02-22T08:44:09;26.05;;;17.48;;
49310;SDS011;35177;45.900;5.946;2023-02-22T08:46:34;25.33;;;16.52;;
49310;SDS011;35177;45.900;5.946;2023-02-22T08:49:00;34.20;;;17.73;;
49310;SDS011;35177;45.900;5.946;2023-02-22T08:51:27;35.53;;;18.90;;
49310;SDS011;35177;45.900;5.946;2023-02-22T08:53:52;30.92;;;18.40;;
49310;SDS011;35177;45.900;5.946;2023-02-22T08:56:18;29.33;;;18.45;;
49310;SDS011;35177;45.900;5.946;2023-02-22T08:58:44;35.63;;;19.73;;
49310;SDS011;35177;45.900;5.946;2023-02-22T09:01:10;37.20;;;18.63;;
49310;SDS011;35177;45.900;5.946;2023-02-22T09:03:35;29.35;;;18.30;;
49310;SDS011;35177;45.900;5.946;2023-02-22T09:06:03;31.60;;;18.75;;
49310;SDS011;35177;45.900;5.946;2023-02-22T09:08:29;37.03;;;17.88;;
49310;SDS011;35177;45.900;5.946;2023-02-22T09:10:54;31.95;;;18.75;;
49310;SDS011;35177;45.900;5.946;2023-02-22T09:13:20;28.60;;;18.27;;
49310;SDS011;35177;45.900;5.946;2023-02-22T09:15:45;27.73;;;17.50;;
49310;SDS011;35177;45.900;5.946;2023-02-22T09:18:11;29.67;;;19.05;;
49310;SDS011;35177;45.900;5.946;2023-02-22T09:20:38;33.38;;;18.80;;
49310;SDS011;35177;45.900;5.946;2023-02-22T09:23:05;26.13;;;17.55;;
49310;SDS011;35177;45.900;5.946;2023-02-22T09:25:33;25.35;;;17.60;;
49310;SDS011;35177;45.900;5.946;2023-02-22T09:27:59;33.95;;;18.70;;
49310;SDS011;35177;45.900;5.946;2023-02-22T09:30:27;30.77;;;19.10;;
49310;SDS011;35177;45.900;5.946;2023-02-22T09:32:57;29.90;;;19.58;;
49310;SDS011;35177;45.900;5.946;2023-02-22T09:35:24;33.38;;;18.80;;
49310;SDS011;35177;45.900;5.946;2023-02-22T09:37:51;27.73;;;18.20;;
49310;SDS011;35177;45.900;5.946;2023-02-22T09:40:21;28.42;;;18.25;;
49310;SDS011;35177;45.900;5.946;2023-02-22T09:43:06;31.83;;;18.33;;
49310;SDS011;35177;45.900;5.946;2023-02-22T09:45:42;33.15;;;19.10;;
49310;SDS011;35177;45.900;5.946;2023-02-22T09:48:17;30.80;;;18.40;;
49310;SDS011;35177;45.900;5.946;2023-02-22T09:50:44;30.42;;;20.02;;
49310;SDS011;35177;45.900;5.946;2023-02-22T09:53:26;30.50;;;18.83;;
49310;SDS011;35177;45.900;5.946;2023-02-22T09:56:10;31.90;;;18.40;;
49310;SDS011;35177;45.900;5.946;2023-02-22T09:58:39;30.52;;;18.60;;
49310;SDS011;35177;45.900;5.946;2023-02-22T10:06:37;29.02;;;18.13;;
49310;SDS011;35177;45.900;5.946;2023-02-22T10:09:08;35.13;;;19.48;;
49310;SDS011;35177;45.900;5.946;2023-02-22T10:14:26;27.00;;;18.38;;
49310;SDS011;35177;45.900;5.946;2023-02-22T10:17:35;28.77;;;15.43;;
49310;SDS011;35177;45.900;5.946;2023-02-22T10:25:25;24.60;;;16.08;;
49310;SDS011;35177;45.900;5.946;2023-02-22T10:28:00;26.75;;;17.08;;
49310;SDS011;35177;45.900;5.946;2023-02-22T10:30:52;41.72;;;17.13;;
49310;SDS011;35177;45.900;5.946;2023-02-22T10:36:26;23.67;;;15.70;;
49310;SDS011;35177;45.900;5.946;2023-02-22T10:38:59;28.65;;;16.52;;
49310;SDS011;35177;45.900;5.946;2023-02-22T10:41:39;26.13;;;17.38;;
49310;SDS011;35177;45.900;5.946;2023-02-22T10:44:09;31.17;;;17.17;;
49310;SDS011;35177;45.900;5.946;2023-02-22T10:46:34;35.17;;;18.08;;
49310;SDS011;35177;45.900;5.946;2023-02-22T10:49:03;29.95;;;19.63;;
49310;SDS011;35177;45.900;5.946;2023-02-22T10:51:31;35.00;;;19.70;;
49310;SDS011;35177;45.900;5.946;2023-02-22T10:56:47;33.00;;;19.23;;
49310;SDS011;35177;45.900;5.946;2023-02-22T11:01:52;31.05;;;18.83;;
49310;SDS011;35177;45.900;5.946;2023-02-22T11:04:19;31.90;;;18.25;;
49310;SDS011;35177;45.900;5.946;2023-02-22T11:06:46;31.98;;;20.13;;
49310;SDS011;35177;45.900;5.946;2023-02-22T11:09:15;34.78;;;20.02;;
49310;SDS011;35177;45.900;5.946;2023-02-22T11:11:43;36.15;;;19.85;;
49310;SDS011;35177;45.900;5.946;2023-02-22T11:14:12;33.22;;;20.48;;
49310;SDS011;35177;45.900;5.946;2023-02-22T11:16:53;36.75;;;21.30;;
49310;SDS011;35177;45.900;5.946;2023-02-22T11:19:21;63.97;;;21.65;;
49310;SDS011;35177;45.900;5.946;2023-02-22T11:21:53;36.63;;;21.85;;
49310;SDS011;35177;45.900;5.946;2023-02-22T11:24:22;32.20;;;20.13;;
49310;SDS011;35177;45.900;5.946;2023-02-22T11:26:54;37.03;;;20.83;;
49310;SDS011;35177;45.900;5.946;2023-02-22T11:31:51;34.83;;;21.42;;
49310;SDS011;35177;45.900;5.946;2023-02-22T11:34:25;33.45;;;20.83;;
49310;SDS011;35177;45.900;5.946;2023-02-22T11:36:51;30.23;;;19.67;;
49310;SDS011;35177;45.900;5.946;2023-02-22T11:39:21;40.58;;;21.65;;
49310;SDS011;35177;45.900;5.946;2023-02-22T11:41:48;35.42;;;21.70;;
49310;SDS011;35177;45.900;5.946;2023-02-22T11:46:51;33.50;;;21.05;;
49310;SDS011;35177;45.900;5.946;2023-02-22T11:49:20;31.23;;;19.50;;
49310;SDS011;35177;45.900;5.946;2023-02-22T12:02:49;37.28;;;23.63;;
49310;SDS011;35177;45.900;5.946;2023-02-22T12:08:35;37.42;;;24.08;;
49310;SDS011;35177;45.900;5.946;2023-02-22T12:11:42;39.08;;;25.10;;
49310;SDS011;35177;45.900;5.946;2023-02-22T12:19:41;43.45;;;25.40;;
49310;SDS011;35177;45.900;5.946;2023-02-22T12:22:26;41.55;;;24.80;;
49310;SDS011;35177;45.900;5.946;2023-02-22T12:25:04;38.10;;;23.02;;
49310;SDS011;35177;45.900;5.946;2023-02-22T12:30:18;38.28;;;22.33;;
49310;SDS011;35177;45.900;5.946;2023-02-22T12:32:55;42.83;;;25.10;;
49310;SDS011;35177;45.900;5.946;2023-02-22T12:35:27;37.42;;;21.88;;
49310;SDS011;35177;45.900;5.946;2023-02-22T12:40:31;34.42;;;22.75;;
49310;SDS011;35177;45.900;5.946;2023-02-22T12:43:05;39.67;;;22.50;;
49310;SDS011;35177;45.900;5.946;2023-02-22T12:48:32;40.42;;;22.27;;
49310;SDS011;35177;45.900;5.946;2023-02-22T12:51:28;35.80;;;22.20;;
49310;SDS011;35177;45.900;5.946;2023-02-22T12:53:58;35.50;;;22.05;;
49310;SDS011;35177;45.900;5.946;2023-02-22T12:56:38;37.97;;;20.67;;
49310;SDS011;35177;45.900;5.946;2023-02-22T12:59:17;43.50;;;22.60;;
49310;SDS011;35177;45.900;5.946;2023-02-22T13:01:57;33.55;;;21.77;;
49310;SDS011;35177;45.900;5.946;2023-02-22T13:04:28;34.35;;;21.98;;
49310;SDS011;35177;45.900;5.946;2023-02-22T13:12:14;39.88;;;23.45;;
49310;SDS011;35177;45.900;5.946;2023-02-22T13:20:00;41.90;;;22.30;;
49310;SDS011;35177;45.900;5.946;2023-02-22T13:22:54;36.10;;;22.35;;
49310;SDS011;35177;45.900;5.946;2023-02-22T13:25:42;47.00;;;23.02;;
49310;SDS011;35177;45.900;5.946;2023-02-22T13:28:27;36.08;;;21.17;;
49310;SDS011;35177;45.900;5.946;2023-02-22T13:33:58;45.55;;;23.05;;
49310;SDS011;35177;45.900;5.946;2023-02-22T13:36:50;33.88;;;21.05;;
49310;SDS011;35177;45.900;5.946;2023-02-22T13:50:14;37.25;;;21.38;;
49310;SDS011;35177;45.900;5.946;2023-02-22T13:52:46;41.10;;;21.83;;
49310;SDS011;35177;45.900;5.946;2023-02-22T13:55:20;33.17;;;21.65;;
49310;SDS011;35177;45.900;5.946;2023-02-22T13:57:55;40.70;;;21.70;;
49310;SDS011;35177;45.900;5.946;2023-02-22T14:13:29;31.25;;;21.50;;
49310;SDS011;35177;45.900;5.946;2023-02-22T14:18:29;42.47;;;22.60;;
49310;SDS011;35177;45.900;5.946;2023-02-22T14:21:17;33.55;;;21.35;;
49310;SDS011;35177;45.900;5.946;2023-02-22T14:23:45;41.55;;;21.55;;
49310;SDS011;35177;45.900;5.946;2023-02-22T14:26:29;36.58;;;22.42;;
49310;SDS011;35177;45.900;5.946;2023-02-22T14:39:36;35.67;;;21.42;;
49310;SDS011;35177;45.900;5.946;2023-02-22T14:47:08;33.25;;;21.90;;
49310;SDS011;35177;45.900;5.946;2023-02-22T14:49:52;32.25;;;20.98;;
49310;SDS011;35177;45.900;5.946;2023-02-22T14:52:26;33.80;;;21.77;;
49310;SDS011;35177;45.900;5.946;2023-02-22T14:54:55;33.42;;;22.65;;
49310;SDS011;35177;45.900;5.946;2023-02-22T15:00:45;32.90;;;21.58;;
49310;SDS011;35177;45.900;5.946;2023-02-22T15:03:16;36.25;;;20.90;;
49310;SDS011;35177;45.900;5.946;2023-02-22T15:05:48;36.60;;;22.20;;
49310;SDS011;35177;45.900;5.946;2023-02-22T15:08:17;37.10;;;20.83;;
49310;SDS011;35177;45.900;5.946;2023-02-22T15:10:51;32.47;;;21.75;;
49310;SDS011;35177;45.900;5.946;2023-02-22T15:13:19;33.28;;;22.30;;
49310;SDS011;35177;45.900;5.946;2023-02-22T15:15:48;31.85;;;21.08;;
49310;SDS011;35177;45.900;5.946;2023-02-22T15:21:12;60.95;;;30.63;;
49310;SDS011;35177;45.900;5.946;2023-02-22T15:31:40;36.40;;;24.15;;
49310;SDS011;35177;45.900;5.946;2023-02-22T15:36:39;35.28;;;19.92;;
49310;SDS011;35177;45.900;5.946;2023-02-22T15:39:19;30.63;;;19.73;;
49310;SDS011;35177;45.900;5.946;2023-02-22T15:44:47;35.67;;;20.88;;
49310;SDS011;35177;45.900;5.946;2023-02-22T15:49:43;33.83;;;21.27;;
49310;SDS011;35177;45.900;5.946;2023-02-22T15:52:19;39.15;;;24.45;;
49310;SDS011;35177;45.900;5.946;2023-02-22T15:54:49;37.58;;;21.30;;
49310;SDS011;35177;45.900;5.946;2023-02-22T15:57:21;32.38;;;20.65;;
49310;SDS011;35177;45.900;5.946;2023-02-22T15:59:50;36.22;;;21.27;;
49310;SDS011;35177;45.900;5.946;2023-02-22T16:02:50;36.15;;;21.85;;
49310;SDS011;35177;45.900;5.946;2023-02-22T16:05:11;38.03;;;21.33;;
49310;SDS011;35177;45.900;5.946;2023-02-22T16:07:44;37.38;;;21.83;;
49310;SDS011;35177;45.900;5.946;2023-02-22T16:10:33;29.98;;;19.58;;
49310;SDS011;35177;45.900;5.946;2023-02-22T16:13:02;35.67;;;20.70;;
49310;SDS011;35177;45.900;5.946;2023-02-22T16:15:32;30.65;;;19.35;;
49310;SDS011;35177;45.900;5.946;2023-02-22T16:20:58;36.58;;;21.80;;
49310;SDS011;35177;45.900;5.946;2023-02-22T16:23:41;34.47;;;20.00;;
49310;SDS011;35177;45.900;5.946;2023-02-22T16:29:03;31.05;;;21.33;;
49310;SDS011;35177;45.900;5.946;2023-02-22T16:31:33;45.70;;;23.92;;
49310;SDS011;35177;45.900;5.946;2023-02-22T16:34:01;37.47;;;23.40;;
49310;SDS011;35177;45.900;5.946;2023-02-22T16:36:41;38.28;;;23.40;;
49310;SDS011;35177;45.900;5.946;2023-02-22T16:39:13;36.53;;;22.77;;
49310;SDS011;35177;45.900;5.946;2023-02-22T16:41:46;36.97;;;23.35;;
49310;SDS011;35177;45.900;5.946;2023-02-22T16:44:12;36.95;;;22.77;;
49310;SDS011;35177;45.900;5.946;2023-02-22T16:46:38;34.47;;;22.00;;
49310;SDS011;35177;45.900;5.946;2023-02-22T16:49:06;39.17;;;23.02;;
49310;SDS011;35177;45.900;5.946;2023-02-22T16:51:38;33.35;;;21.42;;
49310;SDS011;35177;45.900;5.946;2023-02-22T16:54:10;36.88;;;22.73;;
49310;SDS011;35177;45.900;5.946;2023-02-22T16:56:38;35.42;;;21.98;;
49310;SDS011;35177;45.900;5.946;2023-02-22T16:59:08;41.47;;;22.55;;
49310;SDS011;35177;45.900;5.946;2023-02-22T17:01:38;31.35;;;19.85;;
49310;SDS011;35177;45.900;5.946;2023-02-22T17:04:17;32.25;;;21.17;;
49310;SDS011;35177;45.900;5.946;2023-02-22T17:06:44;34.55;;;22.35;;
49310;SDS011;35177;45.900;5.946;2023-02-22T17:09:10;34.63;;;22.23;;
49310;SDS011;35177;45.900;5.946;2023-02-22T17:11:36;35.15;;;22.27;;
49310;SDS011;35177;45.900;5.946;2023-02-22T17:14:03;43.83;;;22.52;;
49310;SDS011;35177;45.900;5.946;2023-02-22T17:16:29;38.88;;;24.00;;
49310;SDS011;35177;45.900;5.946;2023-02-22T17:18:55;38.05;;;24.67;;
49310;SDS011;35177;45.900;5.946;2023-02-22T17:21:21;47.95;;;30.25;;
49310;SDS011;35177;45.900;5.946;2023-02-22T17:23:47;56.70;;;33.75;;
49310;SDS011;35177;45.900;5.946;2023-02-22T17:26:13;50.03;;;28.40;;
49310;SDS011;35177;45.900;5.946;2023-02-22T17:28:41;38.97;;;24.58;;
49310;SDS011;35177;45.900;5.946;2023-02-22T17:31:14;35.22;;;22.92;;